Time;durP1;ratioP1;P1;durP2;ratioP2;P2;SDS_P1;SDS_P2;PMS_P1;PMS_P2;Temp;Humidity;BMP_temperature;BMP_pressure;BME280_temperature;BME280_humidity;BME280_pressure;Samples;Min_cycle;Max_cycle;Signal;HPM_P1;HPM_P2
2022/06/27 00:01:47;;;;;;;2.00;1.90;;;22.80;47.30;;;;;;4903488;29;20223;-57
2022/06/27 00:04:13;;;;;;;1.73;1.63;;;22.70;47.20;;;;;;4903151;29;20228;-57
2022/06/27 00:06:38;;;;;;;2.00;1.90;;;22.70;47.20;;;;;;4902827;29;20282;-58
2022/06/27 00:09:04;;;;;;;1.80;1.70;;;22.80;47.20;;;;;;4902688;29;20191;-58
2022/06/27 00:11:30;;;;;;;1.73;1.63;;;22.80;47.10;;;;;;4906040;29;20230;-56
2022/06/27 00:13:55;;;;;;;1.73;1.63;;;22.70;47.10;;;;;;4907252;29;20793;-56
2022/06/27 00:16:21;;;;;;;1.83;1.73;;;22.70;47.10;;;;;;4904480;29;20199;-59
2022/06/27 00:18:46;;;;;;;2.10;2.00;;;22.70;47.10;;;;;;4904130;29;20267;-56
2022/06/27 00:21:12;;;;;;;1.90;1.80;;;22.70;47.10;;;;;;4903070;29;20220;-57
2022/06/27 00:23:38;;;;;;;1.93;1.83;;;22.70;47.10;;;;;;4901848;29;20192;-57
2022/06/27 00:26:03;;;;;;;1.90;1.80;;;22.70;47.10;;;;;;4906287;29;20251;-58
2022/06/27 00:28:29;;;;;;;1.60;1.50;;;22.70;47.10;;;;;;4903237;29;20188;-58
2022/06/27 00:30:55;;;;;;;1.90;1.80;;;22.70;47.10;;;;;;4907292;29;20200;-57
2022/06/27 00:33:21;;;;;;;1.80;1.70;;;22.70;47.10;;;;;;4903531;29;20203;-58
2022/06/27 00:35:49;;;;;;;1.83;1.73;;;22.70;47.10;;;;;;4908086;29;20441;-57
2022/06/27 00:38:15;;;;;;;2.13;2.03;;;22.70;47.00;;;;;;4908581;29;20194;-57
2022/06/27 00:40:41;;;;;;;1.80;1.70;;;22.70;47.00;;;;;;4907950;29;20482;-57
2022/06/27 00:43:07;;;;;;;2.00;1.90;;;22.70;47.00;;;;;;4909441;29;20192;-61
2022/06/27 00:45:33;;;;;;;1.80;1.70;;;22.70;47.00;;;;;;4910288;29;21818;-58
2022/06/27 00:47:58;;;;;;;1.80;1.70;;;22.70;47.80;;;;;;4910890;29;20219;-57
2022/06/27 00:50:24;;;;;;;1.80;1.70;;;22.70;47.00;;;;;;4908299;29;20210;-57
2022/06/27 00:52:51;;;;;;;2.00;1.90;;;22.70;47.00;;;;;;4908271;29;20243;-56
2022/06/27 00:55:16;;;;;;;1.77;1.67;;;22.70;47.00;;;;;;4906173;29;20188;-58
2022/06/27 00:57:43;;;;;;;2.00;1.90;;;22.70;47.10;;;;;;4908120;29;22506;-57
2022/06/27 01:00:09;;;;;;;2.03;1.93;;;22.70;47.00;;;;;;4909524;29;20661;-59
2022/06/27 01:02:35;;;;;;;1.93;1.83;;;22.70;47.10;;;;;;4905182;29;20465;-58
2022/06/27 01:05:01;;;;;;;2.07;1.97;;;22.70;47.10;;;;;;4907537;29;20504;-58
2022/06/27 01:07:26;;;;;;;2.13;2.03;;;22.70;47.00;;;;;;4905178;29;20628;-56
2022/06/27 01:09:53;;;;;;;1.87;1.77;;;22.70;47.10;;;;;;4909891;29;20286;-57
2022/06/27 01:12:19;;;;;;;2.00;1.90;;;22.70;47.00;;;;;;4907294;29;20227;-57
2022/06/27 01:14:46;;;;;;;1.93;1.83;;;22.70;47.00;;;;;;4907059;29;20466;-56
2022/06/27 01:17:11;;;;;;;3.57;2.33;;;22.70;47.10;;;;;;4906845;29;20442;-57
2022/06/27 01:19:37;;;;;;;2.20;2.10;;;22.70;47.00;;;;;;4903652;29;20445;-58
2022/06/27 01:22:10;;;;;;;1.80;1.70;;;22.70;47.00;;;;;;4906491;29;20204;-57
2022/06/27 01:24:36;;;;;;;2.03;1.93;;;22.70;47.00;;;;;;4907091;29;20438;-58
2022/06/27 01:27:03;;;;;;;2.10;2.00;;;22.70;47.10;;;;;;4906754;29;20517;-56
2022/06/27 01:29:29;;;;;;;2.30;2.20;;;22.70;47.10;;;;;;4906627;29;20438;-57
2022/06/27 01:31:55;;;;;;;1.80;1.70;;;22.70;47.10;;;;;;4904812;29;20550;-56
2022/06/27 01:34:21;;;;;;;2.10;2.00;;;22.70;47.10;;;;;;4909888;29;20234;-56
2022/06/27 01:36:47;;;;;;;2.03;1.93;;;22.70;47.10;;;;;;4905320;29;20200;-57
2022/06/27 01:39:15;;;;;;;1.80;1.70;;;22.70;47.20;;;;;;4908249;29;20800;-58
2022/06/27 01:41:44;;;;;;;2.07;1.97;;;22.70;47.20;;;;;;4904413;29;20256;-59
2022/06/27 01:44:10;;;;;;;2.37;2.17;;;22.70;47.10;;;;;;4906909;29;20438;-56
2022/06/27 01:46:41;;;;;;;2.10;2.00;;;22.70;47.30;;;;;;4906365;29;20502;-57
2022/06/27 01:49:06;;;;;;;2.10;2.00;;;22.70;47.30;;;;;;4906800;29;20454;-59
2022/06/27 01:51:33;;;;;;;2.23;2.13;;;22.70;47.30;;;;;;4906487;29;20528;-56
2022/06/27 01:53:58;;;;;;;2.10;2.00;;;22.70;47.40;;;;;;4907739;29;20211;-56
2022/06/27 01:56:24;;;;;;;2.37;2.27;;;22.70;47.40;;;;;;4904387;29;20438;-59
2022/06/27 01:58:52;;;;;;;1.90;1.80;;;22.70;47.30;;;;;;4905608;29;20193;-56
2022/06/27 02:01:18;;;;;;;1.90;1.80;;;22.70;47.30;;;;;;4907698;29;20216;-58
2022/06/27 02:03:44;;;;;;;2.03;1.93;;;22.70;47.40;;;;;;4905261;29;21005;-56
2022/06/27 02:06:11;;;;;;;2.13;2.03;;;22.70;47.40;;;;;;4908524;29;20199;-59
2022/06/27 02:08:41;;;;;;;1.80;1.70;;;22.70;47.40;;;;;;4908375;29;20195;-57
2022/06/27 02:11:08;;;;;;;2.20;1.87;;;22.70;47.50;;;;;;4908499;29;20449;-57
2022/06/27 02:13:34;;;;;;;2.00;1.90;;;22.70;47.60;;;;;;4902152;29;20456;-58
2022/06/27 02:16:09;;;;;;;2.43;2.33;;;22.70;47.60;;;;;;4907434;29;20925;-56
2022/06/27 02:18:37;;;;;;;2.40;2.20;;;22.70;47.60;;;;;;4903101;29;20183;-57
2022/06/27 02:21:03;;;;;;;2.00;1.90;;;22.70;47.60;;;;;;4905017;29;20481;-57
2022/06/27 02:23:28;;;;;;;1.93;1.83;;;22.70;47.60;;;;;;4904461;29;20544;-57
2022/06/27 02:25:55;;;;;;;2.00;1.90;;;22.70;47.60;;;;;;4908366;29;20956;-56
2022/06/27 02:28:22;;;;;;;2.67;2.47;;;22.70;47.70;;;;;;4904617;29;20206;-57
2022/06/27 02:30:49;;;;;;;2.17;2.00;;;22.70;47.60;;;;;;4907772;29;20444;-56
2022/06/27 02:33:15;;;;;;;2.20;2.10;;;22.70;47.70;;;;;;4904919;29;20859;-57
2022/06/27 02:35:43;;;;;;;2.10;2.00;;;22.70;47.70;;;;;;4904093;29;20815;-57
2022/06/27 02:38:10;;;;;;;2.03;1.93;;;22.70;47.70;;;;;;4907588;29;20450;-58
2022/06/27 02:40:40;;;;;;;2.10;2.00;;;22.70;47.70;;;;;;4902618;29;20566;-56
2022/06/27 02:43:08;;;;;;;2.60;2.10;;;22.70;47.70;;;;;;4908695;29;20450;-58
2022/06/27 02:45:36;;;;;;;2.60;2.40;;;22.70;47.70;;;;;;4904090;29;20457;-56
2022/06/27 02:48:02;;;;;;;2.20;2.10;;;22.70;47.70;;;;;;4904267;29;20585;-57
2022/06/27 02:50:31;;;;;;;2.20;2.10;;;22.70;47.80;;;;;;4903651;29;20441;-57
2022/06/27 02:53:02;;;;;;;2.50;2.30;;;22.70;47.80;;;;;;4906372;29;20438;-57
2022/06/27 02:55:34;;;;;;;2.43;2.33;;;22.70;48.20;;;;;;4905309;29;20456;-57
2022/06/27 02:58:10;;;;;;;2.00;1.90;;;22.70;47.90;;;;;;4907542;29;20480;-59
2022/06/27 03:00:40;;;;;;;2.10;2.00;;;22.70;47.80;;;;;;4904819;29;20445;-56
2022/06/27 03:03:07;;;;;;;2.30;2.20;;;22.70;47.80;;;;;;4905859;29;20976;-57
2022/06/27 03:05:32;;;;;;;2.20;2.10;;;22.70;47.90;;;;;;4901783;29;20529;-58
2022/06/27 03:07:58;;;;;;;2.50;2.40;;;22.70;47.90;;;;;;4907875;29;20537;-56
2022/06/27 03:10:24;;;;;;;2.57;2.47;;;22.70;47.80;;;;;;4905769;29;20192;-56
2022/06/27 03:12:50;;;;;;;2.30;2.20;;;22.70;47.80;;;;;;4906745;29;20201;-56
2022/06/27 03:15:17;;;;;;;2.40;2.30;;;22.70;47.80;;;;;;4905878;29;20278;-57
2022/06/27 03:17:43;;;;;;;2.70;2.60;;;22.70;47.80;;;;;;4900533;29;20929;-56
2022/06/27 03:20:09;;;;;;;2.33;2.17;;;22.70;47.90;;;;;;4905080;29;20445;-56
2022/06/27 03:22:34;;;;;;;2.40;2.30;;;22.70;47.80;;;;;;4904640;29;20263;-57
2022/06/27 03:25:00;;;;;;;2.17;2.07;;;22.70;47.90;;;;;;4905188;29;20461;-56
2022/06/27 03:27:26;;;;;;;2.60;2.50;;;22.70;47.80;;;;;;4904290;29;20199;-58
2022/06/27 03:29:51;;;;;;;2.53;2.17;;;22.70;47.90;;;;;;4904592;29;20216;-56
2022/06/27 03:32:17;;;;;;;2.10;2.00;;;22.70;47.90;;;;;;4904990;29;20271;-58
2022/06/27 03:34:42;;;;;;;2.43;2.33;;;22.70;47.90;;;;;;4904189;29;20203;-58
2022/06/27 03:37:08;;;;;;;2.07;1.97;;;22.70;47.90;;;;;;4904547;29;20282;-57
2022/06/27 03:39:34;;;;;;;2.13;2.03;;;22.70;47.90;;;;;;4904097;29;20586;-58
2022/06/27 03:41:59;;;;;;;2.50;2.40;;;22.70;48.60;;;;;;4905059;29;20255;-56
2022/06/27 03:44:25;;;;;;;2.73;2.63;;;22.70;47.80;;;;;;4907937;29;20533;-57
2022/06/27 03:46:51;;;;;;;2.70;2.50;;;22.70;47.80;;;;;;4905711;29;20203;-58
2022/06/27 03:52:01;;;;;;;2.40;2.30;;;22.70;47.80;;;;;;4904782;29;20647;-57
2022/06/27 03:54:26;;;;;;;2.53;2.43;;;22.70;47.80;;;;;;4903123;29;20945;-56
2022/06/27 03:56:53;;;;;;;2.13;2.03;;;22.70;47.80;;;;;;4905240;29;20199;-56
2022/06/27 03:59:19;;;;;;;3.00;2.80;;;22.70;47.80;;;;;;4901255;29;20290;-57
2022/06/27 04:01:45;;;;;;;2.50;2.40;;;22.70;47.70;;;;;;4904227;29;20889;-57
2022/06/27 04:04:11;;;;;;;2.40;2.30;;;22.70;47.70;;;;;;4904511;29;20311;-58
2022/06/27 04:06:37;;;;;;;2.20;2.10;;;22.70;47.70;;;;;;4904602;29;20524;-58
2022/06/27 04:09:02;;;;;;;2.73;2.53;;;22.70;47.80;;;;;;4907783;29;20196;-57
2022/06/27 04:11:28;;;;;;;2.40;2.30;;;22.70;47.80;;;;;;4912604;29;20288;-58
2022/06/27 04:13:54;;;;;;;2.60;2.40;;;22.70;47.80;;;;;;4911765;29;20195;-56
2022/06/27 04:16:19;;;;;;;2.53;2.43;;;22.70;47.70;;;;;;4912034;29;20203;-57
2022/06/27 04:18:45;;;;;;;2.97;2.77;;;22.70;47.70;;;;;;4904821;29;20203;-57
2022/06/27 04:21:10;;;;;;;2.60;2.50;;;22.80;47.80;;;;;;4908633;29;20216;-59
2022/06/27 04:23:36;;;;;;;2.50;2.40;;;22.80;47.80;;;;;;4908979;29;20648;-57
2022/06/27 04:26:02;;;;;;;2.70;2.60;;;22.80;48.60;;;;;;4911868;29;20203;-59
2022/06/27 04:28:27;;;;;;;3.10;2.90;;;22.80;47.80;;;;;;4909386;29;20199;-59
2022/06/27 04:30:53;;;;;;;2.93;2.80;;;22.80;47.80;;;;;;4907726;29;20195;-56
2022/06/27 04:33:19;;;;;;;3.10;2.90;;;22.80;47.80;;;;;;4909953;29;20673;-56
2022/06/27 04:35:46;;;;;;;3.10;2.90;;;22.80;47.80;;;;;;4905814;29;20179;-56
2022/06/27 04:38:12;;;;;;;2.90;2.70;;;22.80;47.90;;;;;;4908965;29;20452;-57
2022/06/27 04:40:38;;;;;;;2.90;2.67;;;22.80;47.90;;;;;;4904343;29;20546;-58
2022/06/27 04:43:04;;;;;;;3.03;2.83;;;22.80;47.90;;;;;;4909569;29;20445;-57
2022/06/27 04:45:33;;;;;;;3.10;2.90;;;22.80;47.90;;;;;;4903644;29;20243;-56
2022/06/27 04:47:59;;;;;;;2.30;2.20;;;22.80;48.00;;;;;;4907374;29;20430;-57
2022/06/27 04:50:25;;;;;;;2.70;2.50;;;22.80;48.10;;;;;;4908090;29;20493;-56
2022/06/27 04:52:51;;;;;;;3.03;2.83;;;22.80;48.10;;;;;;4908896;29;20292;-57
2022/06/27 04:55:18;;;;;;;2.87;2.70;;;22.80;48.10;;;;;;4896022;29;20450;-56
2022/06/27 04:57:46;;;;;;;3.10;2.90;;;22.80;48.20;;;;;;4905692;29;20445;-56
2022/06/27 05:00:14;;;;;;;2.87;2.77;;;22.80;48.20;;;;;;4903551;29;20442;-59
2022/06/27 05:02:40;;;;;;;2.60;2.50;;;22.80;48.20;;;;;;4891884;29;20472;-57
2022/06/27 05:05:07;;;;;;;3.00;2.80;;;22.80;48.30;;;;;;4906020;29;20486;-58
2022/06/27 05:07:32;;;;;;;2.93;2.73;;;22.80;48.20;;;;;;4904413;29;20458;-56
2022/06/27 05:09:59;;;;;;;2.80;2.70;;;22.80;48.30;;;;;;4909510;29;20502;-57
2022/06/27 05:12:26;;;;;;;2.67;2.57;;;22.80;48.30;;;;;;4903278;29;20195;-56
2022/06/27 05:14:52;;;;;;;2.70;2.60;;;22.80;48.30;;;;;;4904704;29;20468;-62
2022/06/27 05:17:18;;;;;;;3.40;3.10;;;22.80;48.30;;;;;;4907598;29;20465;-58
2022/06/27 05:19:44;;;;;;;2.70;2.60;;;22.80;48.50;;;;;;4905774;29;20466;-57
2022/06/27 05:22:10;;;;;;;2.90;2.80;;;22.80;48.40;;;;;;4904434;29;20206;-59
2022/06/27 05:24:36;;;;;;;2.43;2.33;;;22.80;48.50;;;;;;4901788;29;20192;-57
2022/06/27 05:27:02;;;;;;;2.67;2.57;;;22.80;48.50;;;;;;4903422;29;20191;-57
2022/06/27 05:29:27;;;;;;;3.10;2.80;;;22.80;48.50;;;;;;4908283;29;20196;-57
2022/06/27 05:31:53;;;;;;;3.07;2.87;;;22.80;48.50;;;;;;4904812;29;20204;-60
2022/06/27 05:34:18;;;;;;;3.33;3.13;;;22.80;48.50;;;;;;4909686;29;20199;-58
2022/06/27 05:36:44;;;;;;;3.60;2.30;;;22.80;48.50;;;;;;4907532;29;20198;-56
2022/06/27 05:39:10;;;;;;;3.73;2.80;;;22.80;48.50;;;;;;4905923;29;20191;-59
2022/06/27 05:41:36;;;;;;;3.23;2.93;;;22.80;48.50;;;;;;4891820;29;20373;-59
2022/06/27 05:44:02;;;;;;;4.97;3.30;;;22.90;48.70;;;;;;4905075;29;21650;-57
2022/06/27 05:46:28;;;;;;;3.00;2.80;;;22.90;48.70;;;;;;4903712;29;20869;-60
2022/06/27 05:48:55;;;;;;;4.37;2.70;;;22.80;48.60;;;;;;4906386;29;20433;-60
2022/06/27 05:51:20;;;;;;;3.10;2.90;;;22.90;48.80;;;;;;4909822;29;20483;-58
2022/06/27 05:53:48;;;;;;;3.00;2.80;;;22.90;48.80;;;;;;4905914;29;20476;-58
2022/06/27 05:56:14;;;;;;;3.17;2.97;;;22.80;48.70;;;;;;4904799;29;20195;-58
2022/06/27 05:58:41;;;;;;;2.83;2.63;;;22.80;48.80;;;;;;4905280;29;20444;-58
2022/06/27 06:01:06;;;;;;;2.70;2.47;;;22.80;48.80;;;;;;4903577;29;20478;-58
2022/06/27 06:03:33;;;;;;;3.40;3.10;;;22.80;48.80;;;;;;4907293;29;20446;-58
2022/06/27 06:05:58;;;;;;;2.53;2.43;;;22.80;48.80;;;;;;4906766;29;20661;-58
2022/06/27 06:08:25;;;;;;;3.10;2.90;;;22.80;49.60;;;;;;4906734;29;20468;-58
2022/06/27 06:10:51;;;;;;;2.60;2.50;;;22.80;49.70;;;;;;4909626;29;20226;-59
2022/06/27 06:13:16;;;;;;;2.60;2.50;;;22.80;48.90;;;;;;4905016;29;20909;-59
2022/06/27 06:15:42;;;;;;;3.10;2.90;;;22.80;48.90;;;;;;4905310;29;20187;-58
2022/06/27 06:18:08;;;;;;;3.50;2.93;;;22.80;49.00;;;;;;4905370;29;21065;-59
2022/06/27 06:20:34;;;;;;;2.70;2.50;;;22.80;48.90;;;;;;4904880;29;20195;-59
2022/06/27 06:23:00;;;;;;;2.90;2.70;;;22.80;48.90;;;;;;4906149;29;20481;-59
2022/06/27 06:25:27;;;;;;;2.63;2.50;;;22.80;48.90;;;;;;4902248;29;20492;-59
2022/06/27 06:27:56;;;;;;;2.30;2.10;;;22.80;49.00;;;;;;4903999;29;20192;-62
2022/06/27 06:30:22;;;;;;;2.67;2.47;;;22.80;49.00;;;;;;4902054;29;20459;-58
2022/06/27 06:32:49;;;;;;;2.73;2.53;;;22.80;49.00;;;;;;4904636;29;20933;-57
2022/06/27 06:35:15;;;;;;;2.53;2.43;;;22.80;49.00;;;;;;4905207;29;20433;-58
2022/06/27 06:37:42;;;;;;;2.70;2.50;;;22.80;49.00;;;;;;4904863;29;20449;-58
2022/06/27 06:40:08;;;;;;;2.57;2.47;;;22.80;49.00;;;;;;4908001;29;20581;-58
2022/06/27 06:42:35;;;;;;;3.20;3.00;;;22.80;49.00;;;;;;4906906;29;20474;-59
2022/06/27 06:45:02;;;;;;;2.33;2.13;;;22.80;49.00;;;;;;4904615;29;20442;-58
2022/06/27 06:47:27;;;;;;;2.60;2.47;;;22.80;49.80;;;;;;4906114;29;20431;-57
2022/06/27 06:49:54;;;;;;;2.37;2.27;;;22.80;49.00;;;;;;4903727;29;20453;-62
2022/06/27 06:52:20;;;;;;;2.53;2.43;;;22.80;49.00;;;;;;4907145;29;20183;-58
2022/06/27 06:54:46;;;;;;;2.33;2.23;;;22.80;49.00;;;;;;4904570;29;20505;-58
2022/06/27 06:57:13;;;;;;;2.33;2.23;;;22.80;49.00;;;;;;4907805;29;20920;-59
2022/06/27 06:59:39;;;;;;;2.33;2.23;;;22.80;49.00;;;;;;4908493;29;20437;-59
2022/06/27 07:02:05;;;;;;;2.60;2.50;;;22.80;49.00;;;;;;4908760;29;20477;-58
2022/06/27 07:04:31;;;;;;;3.40;2.57;;;22.80;49.00;;;;;;4909530;29;20196;-58
2022/06/27 07:07:00;;;;;;;2.80;2.60;;;22.80;49.00;;;;;;4904179;29;20454;-58
2022/06/27 07:09:25;;;;;;;2.60;2.40;;;22.80;49.00;;;;;;4906445;29;20187;-58
2022/06/27 07:11:51;;;;;;;2.77;2.57;;;22.80;49.00;;;;;;4901895;29;20992;-58
2022/06/27 07:14:17;;;;;;;2.50;2.30;;;22.80;49.00;;;;;;4905035;29;20195;-57
2022/06/27 07:16:46;;;;;;;2.97;2.80;;;22.80;49.00;;;;;;4906040;29;20199;-56
2022/06/27 07:19:13;;;;;;;3.27;2.50;;;22.80;49.00;;;;;;4905386;29;20438;-57
2022/06/27 07:21:38;;;;;;;2.70;2.60;;;22.80;49.10;;;;;;4908771;29;20502;-57
2022/06/27 07:24:08;;;;;;;2.33;2.23;;;22.80;49.10;;;;;;4904086;29;20462;-58
2022/06/27 07:26:35;;;;;;;3.00;2.80;;;22.80;49.10;;;;;;4905389;29;20218;-57
2022/06/27 07:29:03;;;;;;;2.30;2.20;;;22.80;49.10;;;;;;4906665;29;20442;-57
2022/06/27 07:31:29;;;;;;;2.50;2.40;;;22.80;49.10;;;;;;4910751;29;20521;-57
2022/06/27 07:33:54;;;;;;;2.30;2.10;;;22.80;49.10;;;;;;4909052;29;20920;-57
2022/06/27 07:36:22;;;;;;;2.50;2.40;;;22.80;49.10;;;;;;4906429;29;20199;-57
2022/06/27 07:38:51;;;;;;;2.63;2.43;;;22.80;49.10;;;;;;4904986;29;20274;-57
2022/06/27 07:41:19;;;;;;;2.83;2.73;;;22.80;49.10;;;;;;4908445;29;20482;-58
2022/06/27 07:43:46;;;;;;;2.60;2.50;;;22.80;49.10;;;;;;4908318;29;20446;-58
2022/06/27 07:46:15;;;;;;;3.20;3.00;;;22.80;49.10;;;;;;4909195;29;20433;-58
2022/06/27 07:48:41;;;;;;;2.20;2.00;;;22.80;49.10;;;;;;4908171;29;20429;-57
2022/06/27 07:51:07;;;;;;;2.10;2.00;;;22.80;49.10;;;;;;4908196;29;20460;-58
2022/06/27 07:53:35;;;;;;;2.30;2.20;;;22.80;49.10;;;;;;4906184;29;20441;-58
2022/06/27 07:56:03;;;;;;;2.70;2.60;;;22.80;49.10;;;;;;4908101;29;20542;-58
2022/06/27 07:58:33;;;;;;;2.30;2.20;;;22.80;49.10;;;;;;4902604;29;20790;-57
2022/06/27 08:01:02;;;;;;;2.47;2.37;;;22.80;49.10;;;;;;4906816;29;20419;-57
2022/06/27 08:03:39;;;;;;;2.43;2.33;;;22.80;49.10;;;;;;4908700;29;20441;-58
2022/06/27 08:06:21;;;;;;;3.20;2.60;;;22.80;49.10;;;;;;4907547;29;20524;-59
2022/06/27 08:08:50;;;;;;;3.37;2.67;;;22.80;49.10;;;;;;4906370;29;20448;-58
2022/06/27 08:11:27;;;;;;;3.00;2.63;;;22.80;49.20;;;;;;4905949;29;20441;-58
2022/06/27 08:13:56;;;;;;;2.20;2.10;;;22.80;49.20;;;;;;4905981;29;20525;-59
2022/06/27 08:16:26;;;;;;;2.20;2.10;;;22.80;49.20;;;;;;4906682;29;20481;-61
2022/06/27 08:18:53;;;;;;;2.50;2.30;;;22.80;49.20;;;;;;4908080;29;20525;-58
2022/06/27 08:21:24;;;;;;;2.90;2.80;;;22.80;49.20;;;;;;4906525;29;20965;-57
2022/06/27 08:23:51;;;;;;;2.60;2.50;;;22.80;50.00;;;;;;4907982;29;20419;-58
2022/06/27 08:26:17;;;;;;;2.30;2.20;;;22.80;49.30;;;;;;4906631;29;20536;-58
2022/06/27 08:28:47;;;;;;;2.50;2.40;;;22.80;49.20;;;;;;4904655;29;20449;-58
2022/06/27 08:31:12;;;;;;;2.50;2.40;;;22.70;49.20;;;;;;4905174;29;20442;-59
2022/06/27 08:33:40;;;;;;;2.47;2.37;;;22.80;49.20;;;;;;4905685;29;20498;-58
2022/06/27 08:36:05;;;;;;;2.80;2.60;;;22.80;49.20;;;;;;4906250;29;20204;-58
2022/06/27 08:38:48;;;;;;;2.33;2.23;;;22.80;49.20;;;;;;4907488;29;20525;-58
2022/06/27 08:41:14;;;;;;;2.70;2.60;;;22.80;49.20;;;;;;4905589;29;20235;-59
2022/06/27 08:43:40;;;;;;;2.50;2.33;;;22.80;49.20;;;;;;4903874;29;20453;-58
2022/06/27 08:46:08;;;;;;;2.33;2.23;;;22.80;49.20;;;;;;4906452;29;20441;-59
2022/06/27 08:48:36;;;;;;;2.60;2.00;;;22.80;49.20;;;;;;4904192;29;20419;-59
2022/06/27 08:51:05;;;;;;;2.80;2.60;;;22.80;50.00;;;;;;4907701;29;20929;-58
2022/06/27 08:53:32;;;;;;;2.40;2.30;;;22.80;49.20;;;;;;4908451;29;20448;-58
2022/06/27 08:55:59;;;;;;;2.60;2.50;;;22.80;49.20;;;;;;4905039;29;20426;-58
2022/06/27 08:58:25;;;;;;;2.53;2.43;;;22.80;49.20;;;;;;4907232;29;20430;-58
2022/06/27 09:00:51;;;;;;;2.40;2.30;;;22.80;49.20;;;;;;4909360;29;20450;-57
2022/06/27 09:03:19;;;;;;;3.23;3.03;;;22.80;49.20;;;;;;4909878;29;20438;-58
2022/06/27 09:05:57;;;;;;;3.10;2.80;;;22.80;49.20;;;;;;4911677;29;20671;-57
2022/06/27 09:08:28;;;;;;;2.30;2.20;;;22.80;49.20;;;;;;4908008;29;20437;-60
2022/06/27 09:10:56;;;;;;;2.50;2.30;;;22.80;49.30;;;;;;4900866;29;20433;-57
2022/06/27 09:13:23;;;;;;;2.97;2.87;;;22.80;49.30;;;;;;4908428;29;20449;-57
2022/06/27 09:15:50;;;;;;;2.70;2.60;;;22.80;49.30;;;;;;4908899;29;21027;-57
2022/06/27 09:18:29;;;;;;;2.23;2.13;;;22.80;50.00;;;;;;4906525;29;20955;-58
2022/06/27 09:21:07;;;;;;;2.63;2.53;;;22.80;49.30;;;;;;4910487;29;20470;-57
2022/06/27 09:23:58;;;;;;;2.60;2.50;;;22.80;49.30;;;;;;4896850;29;20442;-58
2022/06/27 09:26:29;;;;;;;2.37;2.27;;;22.80;49.30;;;;;;4905627;29;20438;-58
2022/06/27 09:29:03;;;;;;;2.57;2.40;;;22.80;50.00;;;;;;4884750;29;20468;-58
2022/06/27 09:31:50;;;;;;;2.63;2.43;;;22.80;49.20;;;;;;4830947;29;20524;-62
2022/06/27 09:34:16;;;;;;;2.33;2.10;;;22.80;49.90;;;;;;4895107;29;21391;-59
2022/06/27 09:36:51;;;;;;;3.53;3.10;;;22.80;49.00;;;;;;4898258;29;20529;-58
2022/06/27 09:39:37;;;;;;;3.10;2.90;;;22.80;49.00;;;;;;4895848;29;20446;-57
2022/06/27 09:42:10;;;;;;;4.00;2.93;;;22.80;48.90;;;;;;4903789;29;20478;-57
2022/06/27 09:44:40;;;;;;;2.40;2.30;;;22.80;48.90;;;;;;4909017;29;20437;-58
2022/06/27 09:47:18;;;;;;;2.40;2.30;;;22.80;48.80;;;;;;4906620;29;20454;-58
2022/06/27 09:49:50;;;;;;;2.70;2.60;;;22.80;48.80;;;;;;4908819;29;20474;-58
2022/06/27 09:52:20;;;;;;;2.77;2.57;;;22.80;48.90;;;;;;4890868;29;20459;-60
2022/06/27 09:54:48;;;;;;;2.90;2.50;;;22.80;48.90;;;;;;4896770;29;20457;-58
2022/06/27 09:57:14;;;;;;;2.37;2.27;;;22.80;48.90;;;;;;4906042;29;20499;-58
2022/06/27 09:59:41;;;;;;;2.70;2.50;;;22.80;49.00;;;;;;4911729;29;20941;-58
2022/06/27 10:02:07;;;;;;;2.67;2.50;;;22.80;49.00;;;;;;4908242;29;20470;-57
2022/06/27 10:04:35;;;;;;;2.73;2.53;;;22.80;49.10;;;;;;4892873;29;20834;-57
2022/06/27 10:07:03;;;;;;;2.63;2.53;;;22.80;49.00;;;;;;4907318;29;20449;-59
2022/06/27 10:09:30;;;;;;;2.20;2.10;;;22.80;49.00;;;;;;4908886;29;20431;-57
2022/06/27 10:12:28;;;;;;;2.67;2.57;;;22.80;49.00;;;;;;4909187;29;20446;-61
2022/06/27 10:15:14;;;;;;;2.50;2.40;;;22.80;49.10;;;;;;4908715;29;21000;-58
2022/06/27 10:17:48;;;;;;;2.30;2.20;;;22.80;49.10;;;;;;4910126;29;20962;-59
2022/06/27 10:20:31;;;;;;;3.40;3.20;;;22.80;49.10;;;;;;4908600;29;20793;-59
2022/06/27 10:23:03;;;;;;;2.63;2.43;;;22.80;49.20;;;;;;4903961;29;20474;-58
2022/06/27 10:25:31;;;;;;;2.40;2.30;;;22.80;49.20;;;;;;4907768;29;20458;-58
2022/06/27 10:28:12;;;;;;;2.80;2.60;;;22.80;49.20;;;;;;4907860;29;20470;-59
2022/06/27 10:30:41;;;;;;;2.70;2.60;;;22.80;49.20;;;;;;4906808;29;20430;-58
2022/06/27 10:33:28;;;;;;;3.10;2.90;;;22.80;49.30;;;;;;4903809;29;20442;-61
2022/06/27 10:36:02;;;;;;;2.70;2.60;;;22.80;49.20;;;;;;4900632;29;20443;-58
2022/06/27 10:38:39;;;;;;;2.70;2.60;;;22.80;49.30;;;;;;4906886;29;20442;-57
2022/06/27 10:41:31;;;;;;;3.10;2.63;;;22.80;49.30;;;;;;4905470;29;21007;-58
2022/06/27 10:43:59;;;;;;;4.30;2.80;;;22.80;49.30;;;;;;4903741;29;20442;-58
2022/06/27 10:46:24;;;;;;;2.43;2.33;;;22.80;49.30;;;;;;4901487;29;20454;-57
2022/06/27 10:48:58;;;;;;;3.40;3.10;;;22.80;49.50;;;;;;4909149;29;20422;-58
2022/06/27 10:51:28;;;;;;;2.70;2.50;;;22.80;49.40;;;;;;4905916;29;20195;-56
2022/06/27 10:54:05;;;;;;;2.80;2.70;;;22.80;49.50;;;;;;4909110;29;20509;-57
2022/06/27 10:56:49;;;;;;;3.03;2.60;;;22.80;49.40;;;;;;4906102;29;21007;-58
2022/06/27 10:59:15;;;;;;;3.03;2.83;;;22.80;49.50;;;;;;4912762;29;20437;-58
2022/06/27 11:02:01;;;;;;;3.27;3.07;;;22.80;49.50;;;;;;4909316;29;20473;-58
2022/06/27 11:04:32;;;;;;;2.70;2.60;;;22.80;49.50;;;;;;4901787;29;20279;-59
2022/06/27 11:07:08;;;;;;;3.40;3.20;;;22.80;49.60;;;;;;4907383;29;20791;-57
2022/06/27 11:09:43;;;;;;;3.47;3.27;;;22.80;49.50;;;;;;4908096;29;20940;-57
2022/06/27 11:12:10;;;;;;;2.70;2.60;;;22.80;49.60;;;;;;4909486;29;20438;-57
2022/06/27 11:14:53;;;;;;;3.03;2.83;;;22.80;49.60;;;;;;4908394;29;20430;-57
2022/06/27 11:17:42;;;;;;;2.80;2.70;;;22.80;49.60;;;;;;4905298;29;20485;-57
2022/06/27 11:20:14;;;;;;;2.83;2.63;;;22.80;49.60;;;;;;4889965;29;20586;-57
2022/06/27 11:22:41;;;;;;;2.57;2.47;;;22.70;49.50;;;;;;4906861;29;20973;-58
2022/06/27 11:25:07;;;;;;;3.03;2.83;;;22.80;49.70;;;;;;4905250;29;20442;-58
2022/06/27 11:27:51;;;;;;;3.17;2.97;;;22.70;49.50;;;;;;4907725;29;20433;-57
2022/06/27 11:33:33;;;;;;;3.47;3.27;;;22.70;49.50;;;;;;4902949;29;20436;-58
2022/06/27 11:36:00;;;;;;;3.73;3.53;;;22.70;49.60;;;;;;4906940;29;21620;-57
2022/06/27 11:38:46;;;;;;;2.93;2.83;;;22.70;49.60;;;;;;4907418;29;20509;-57
2022/06/27 11:41:16;;;;;;;3.00;2.90;;;22.70;49.60;;;;;;4905241;29;20505;-58
2022/06/27 11:43:53;;;;;;;2.93;2.73;;;22.70;49.60;;;;;;4906230;29;21123;-58
2022/06/27 11:46:46;;;;;;;3.30;3.10;;;22.70;49.60;;;;;;4905331;29;20433;-57
2022/06/27 11:49:17;;;;;;;2.97;2.87;;;22.70;49.60;;;;;;4906818;29;20439;-58
2022/06/27 11:51:47;;;;;;;3.10;2.90;;;22.70;49.60;;;;;;4905869;29;20477;-57
2022/06/27 11:54:18;;;;;;;3.30;3.10;;;22.70;49.60;;;;;;4906757;29;20521;-57
2022/06/27 11:56:46;;;;;;;3.40;3.20;;;22.70;49.60;;;;;;4904298;29;20449;-57
2022/06/27 11:59:14;;;;;;;2.77;2.67;;;22.70;49.60;;;;;;4913200;29;20433;-58
2022/06/27 12:01:57;;;;;;;2.93;2.73;;;22.70;49.60;;;;;;4905892;29;20465;-58
2022/06/27 12:04:33;;;;;;;3.40;3.20;;;22.70;49.50;;;;;;4907128;29;20493;-59
2022/06/27 12:07:08;;;;;;;3.07;2.97;;;22.70;49.60;;;;;;4893746;29;20483;-57
2022/06/27 12:10:00;;;;;;;3.47;3.27;;;22.70;49.60;;;;;;4906839;29;20439;-58
2022/06/27 12:12:26;;;;;;;3.53;3.33;;;22.70;49.60;;;;;;4903152;29;20462;-59
2022/06/27 12:14:54;;;;;;;3.80;3.60;;;22.70;49.60;;;;;;4905198;29;20455;-57
2022/06/27 12:17:20;;;;;;;5.93;3.50;;;22.70;49.60;;;;;;4906972;29;20189;-57
2022/06/27 12:19:46;;;;;;;2.70;2.60;;;22.70;49.60;;;;;;4907538;29;20895;-58
2022/06/27 12:22:18;;;;;;;3.53;3.33;;;22.70;49.60;;;;;;4906938;29;20588;-61
2022/06/27 12:24:46;;;;;;;4.10;3.90;;;22.70;49.60;;;;;;4903049;29;20455;-57
2022/06/27 12:27:12;;;;;;;3.60;3.40;;;22.70;49.60;;;;;;4903525;29;20442;-58
2022/06/27 12:29:38;;;;;;;3.50;3.30;;;22.70;49.60;;;;;;4903950;29;20781;-58
2022/06/27 12:32:04;;;;;;;3.47;3.27;;;22.70;49.60;;;;;;4912129;29;20187;-58
2022/06/27 12:34:30;;;;;;;3.57;3.37;;;22.70;49.60;;;;;;4904649;29;20632;-58
2022/06/27 12:36:56;;;;;;;4.30;4.10;;;22.70;49.70;;;;;;4910252;29;20470;-58
2022/06/27 12:39:23;;;;;;;3.63;3.43;;;22.70;49.60;;;;;;4909831;29;20470;-58
2022/06/27 12:41:49;;;;;;;3.80;3.50;;;22.70;49.70;;;;;;4908982;29;20243;-57
2022/06/27 12:44:15;;;;;;;3.87;3.67;;;22.70;49.60;;;;;;4911669;29;20437;-58
2022/06/27 12:46:40;;;;;;;3.70;3.50;;;22.70;49.60;;;;;;4910104;29;20210;-58
2022/06/27 12:49:06;;;;;;;4.63;4.43;;;22.70;49.70;;;;;;4909132;29;20195;-59
2022/06/27 12:51:31;;;;;;;3.27;3.17;;;22.70;49.60;;;;;;4906674;29;20291;-58
2022/06/27 12:53:57;;;;;;;3.73;3.53;;;22.70;49.70;;;;;;4907712;29;20862;-59
2022/06/27 12:56:25;;;;;;;4.20;3.80;;;22.70;49.60;;;;;;4912188;29;20204;-58
2022/06/27 12:58:51;;;;;;;4.10;3.80;;;22.70;49.70;;;;;;4908252;29;20184;-57
2022/06/27 13:01:16;;;;;;;4.20;4.00;;;22.70;49.70;;;;;;4910165;29;20500;-58